sensor_id;sensor_type;location;lat;lon;timestamp;P1;durP1;ratioP1;P2;durP2;ratioP2
63398;SDS011;49533;-34.520;150.798;2022-09-09T00:00:18;1.20;;;0.93;;
63398;SDS011;49533;-34.520;150.798;2022-09-09T00:02:53;1.45;;;0.93;;
63398;SDS011;49533;-34.520;150.798;2022-09-09T00:05:31;1.27;;;1.00;;
63398;SDS011;49533;-34.520;150.798;2022-09-09T00:08:07;1.02;;;0.95;;
63398;SDS011;49533;-34.520;150.798;2022-09-09T00:10:44;4.78;;;1.13;;
63398;SDS011;49533;-34.520;150.798;2022-09-09T00:13:16;1.40;;;0.73;;
63398;SDS011;49533;-34.520;150.798;2022-09-09T00:15:57;2.13;;;0.90;;
63398;SDS011;49533;-34.520;150.798;2022-09-09T00:18:46;9.55;;;2.20;;
63398;SDS011;49533;-34.520;150.798;2022-09-09T00:21:33;2.38;;;1.17;;
63398;SDS011;49533;-34.520;150.798;2022-09-09T00:24:11;7.38;;;0.95;;
63398;SDS011;49533;-34.520;150.798;2022-09-09T00:26:52;1.05;;;0.90;;
63398;SDS011;49533;-34.520;150.798;2022-09-09T00:29:28;2.45;;;1.02;;
63398;SDS011;49533;-34.520;150.798;2022-09-09T00:32:14;1.70;;;1.15;;
63398;SDS011;49533;-34.520;150.798;2022-09-09T00:34:49;3.20;;;0.90;;
63398;SDS011;49533;-34.520;150.798;2022-09-09T00:37:21;2.97;;;0.90;;
63398;SDS011;49533;-34.520;150.798;2022-09-09T00:39:51;3.17;;;1.00;;
63398;SDS011;49533;-34.520;150.798;2022-09-09T00:42:24;1.00;;;0.85;;
63398;SDS011;49533;-34.520;150.798;2022-09-09T00:44:56;2.55;;;1.05;;
63398;SDS011;49533;-34.520;150.798;2022-09-09T00:53:22;1.48;;;1.00;;
63398;SDS011;49533;-34.520;150.798;2022-09-09T00:56:12;3.50;;;0.93;;
63398;SDS011;49533;-34.520;150.798;2022-09-09T00:58:43;1.55;;;0.90;;
63398;SDS011;49533;-34.520;150.798;2022-09-09T01:01:23;1.73;;;1.00;;
63398;SDS011;49533;-34.520;150.798;2022-09-09T01:03:54;2.42;;;0.88;;
63398;SDS011;49533;-34.520;150.798;2022-09-09T01:06:29;1.88;;;0.90;;
63398;SDS011;49533;-34.520;150.798;2022-09-09T01:09:07;1.13;;;1.02;;
63398;SDS011;49533;-34.520;150.798;2022-09-09T01:11:57;0.95;;;0.95;;
63398;SDS011;49533;-34.520;150.798;2022-09-09T01:14:40;0.70;;;0.70;;
63398;SDS011;49533;-34.520;150.798;2022-09-09T01:17:19;0.70;;;0.70;;
63398;SDS011;49533;-34.520;150.798;2022-09-09T01:20:02;1.35;;;0.80;;
63398;SDS011;49533;-34.520;150.798;2022-09-09T01:22:44;1.25;;;1.15;;
63398;SDS011;49533;-34.520;150.798;2022-09-09T01:28:29;0.63;;;0.63;;
63398;SDS011;49533;-34.520;150.798;2022-09-09T01:30:57;1.38;;;0.80;;
63398;SDS011;49533;-34.520;150.798;2022-09-09T01:33:27;1.15;;;1.05;;
63398;SDS011;49533;-34.520;150.798;2022-09-09T01:35:55;0.75;;;0.75;;
63398;SDS011;49533;-34.520;150.798;2022-09-09T01:38:33;0.93;;;0.90;;
63398;SDS011;49533;-34.520;150.798;2022-09-09T01:41:02;0.75;;;0.75;;
63398;SDS011;49533;-34.520;150.798;2022-09-09T01:43:30;1.35;;;0.93;;
63398;SDS011;49533;-34.520;150.798;2022-09-09T01:45:59;1.70;;;0.82;;
63398;SDS011;49533;-34.520;150.798;2022-09-09T01:48:28;0.85;;;0.85;;
63398;SDS011;49533;-34.520;150.798;2022-09-09T01:50:55;1.52;;;1.00;;
63398;SDS011;49533;-34.520;150.798;2022-09-09T01:53:23;1.23;;;1.00;;
63398;SDS011;49533;-34.520;150.798;2022-09-09T01:56:00;1.55;;;0.90;;
63398;SDS011;49533;-34.520;150.798;2022-09-09T01:58:41;1.30;;;0.85;;
63398;SDS011;49533;-34.520;150.798;2022-09-09T02:01:29;0.98;;;0.93;;
63398;SDS011;49533;-34.520;150.798;2022-09-09T02:07:20;1.13;;;0.82;;
63398;SDS011;49533;-34.520;150.798;2022-09-09T02:10:03;3.63;;;0.90;;
63398;SDS011;49533;-34.520;150.798;2022-09-09T02:12:44;1.20;;;1.20;;
63398;SDS011;49533;-34.520;150.798;2022-09-09T02:15:17;1.70;;;1.17;;
63398;SDS011;49533;-34.520;150.798;2022-09-09T02:17:52;2.22;;;1.45;;
63398;SDS011;49533;-34.520;150.798;2022-09-09T02:20:23;1.80;;;1.10;;
63398;SDS011;49533;-34.520;150.798;2022-09-09T02:22:53;1.05;;;1.05;;
63398;SDS011;49533;-34.520;150.798;2022-09-09T02:25:22;1.83;;;1.40;;
63398;SDS011;49533;-34.520;150.798;2022-09-09T02:27:52;1.40;;;1.30;;
63398;SDS011;49533;-34.520;150.798;2022-09-09T02:30:19;2.15;;;1.80;;
63398;SDS011;49533;-34.520;150.798;2022-09-09T02:32:48;1.83;;;1.70;;
63398;SDS011;49533;-34.520;150.798;2022-09-09T02:35:19;1.77;;;1.67;;
63398;SDS011;49533;-34.520;150.798;2022-09-09T02:37:50;1.90;;;1.80;;
63398;SDS011;49533;-34.520;150.798;2022-09-09T02:40:22;1.75;;;1.45;;
63398;SDS011;49533;-34.520;150.798;2022-09-09T02:42:50;1.65;;;1.55;;
63398;SDS011;49533;-34.520;150.798;2022-09-09T02:45:18;1.73;;;1.60;;
63398;SDS011;49533;-34.520;150.798;2022-09-09T02:47:58;1.65;;;1.55;;
63398;SDS011;49533;-34.520;150.798;2022-09-09T02:50:40;1.42;;;1.40;;
63398;SDS011;49533;-34.520;150.798;2022-09-09T02:53:21;2.05;;;1.95;;
63398;SDS011;49533;-34.520;150.798;2022-09-09T02:55:58;2.63;;;2.00;;
63398;SDS011;49533;-34.520;150.798;2022-09-09T02:58:35;2.13;;;2.00;;
63398;SDS011;49533;-34.520;150.798;2022-09-09T03:01:03;2.42;;;1.90;;
63398;SDS011;49533;-34.520;150.798;2022-09-09T03:03:30;1.83;;;1.73;;
63398;SDS011;49533;-34.520;150.798;2022-09-09T03:05:57;1.75;;;1.30;;
63398;SDS011;49533;-34.520;150.798;2022-09-09T03:08:24;1.83;;;1.73;;
63398;SDS011;49533;-34.520;150.798;2022-09-09T03:10:54;2.53;;;1.90;;
63398;SDS011;49533;-34.520;150.798;2022-09-09T03:13:21;3.05;;;1.67;;
63398;SDS011;49533;-34.520;150.798;2022-09-09T03:15:48;2.08;;;1.88;;
63398;SDS011;49533;-34.520;150.798;2022-09-09T03:18:15;1.70;;;1.60;;
63398;SDS011;49533;-34.520;150.798;2022-09-09T03:20:42;1.42;;;1.35;;
63398;SDS011;49533;-34.520;150.798;2022-09-09T03:23:09;1.67;;;1.58;;
63398;SDS011;49533;-34.520;150.798;2022-09-09T03:25:38;2.00;;;1.50;;
63398;SDS011;49533;-34.520;150.798;2022-09-09T03:28:11;1.10;;;1.10;;
63398;SDS011;49533;-34.520;150.798;2022-09-09T03:30:39;2.22;;;1.80;;
63398;SDS011;49533;-34.520;150.798;2022-09-09T03:33:06;6.75;;;1.70;;
63398;SDS011;49533;-34.520;150.798;2022-09-09T03:35:33;1.75;;;1.65;;
63398;SDS011;49533;-34.520;150.798;2022-09-09T03:38:00;1.42;;;1.33;;
63398;SDS011;49533;-34.520;150.798;2022-09-09T03:40:27;1.80;;;1.73;;
63398;SDS011;49533;-34.520;150.798;2022-09-09T03:42:54;1.70;;;1.60;;
63398;SDS011;49533;-34.520;150.798;2022-09-09T03:45:21;2.00;;;1.70;;
63398;SDS011;49533;-34.520;150.798;2022-09-09T03:47:48;1.50;;;1.40;;
63398;SDS011;49533;-34.520;150.798;2022-09-09T03:50:15;1.67;;;1.58;;
63398;SDS011;49533;-34.520;150.798;2022-09-09T03:52:43;1.80;;;1.70;;
63398;SDS011;49533;-34.520;150.798;2022-09-09T03:55:12;1.58;;;1.58;;
63398;SDS011;49533;-34.520;150.798;2022-09-09T03:57:39;1.88;;;1.77;;
63398;SDS011;49533;-34.520;150.798;2022-09-09T04:00:06;3.70;;;1.75;;
63398;SDS011;49533;-34.520;150.798;2022-09-09T04:02:34;1.60;;;1.60;;
63398;SDS011;49533;-34.520;150.798;2022-09-09T04:05:01;1.80;;;1.70;;
63398;SDS011;49533;-34.520;150.798;2022-09-09T04:07:28;3.13;;;1.80;;
63398;SDS011;49533;-34.520;150.798;2022-09-09T04:09:56;1.83;;;1.73;;
63398;SDS011;49533;-34.520;150.798;2022-09-09T04:12:23;1.67;;;1.52;;
63398;SDS011;49533;-34.520;150.798;2022-09-09T04:14:50;1.70;;;1.60;;
63398;SDS011;49533;-34.520;150.798;2022-09-09T04:17:17;3.47;;;1.70;;
63398;SDS011;49533;-34.520;150.798;2022-09-09T04:19:44;2.13;;;1.60;;
63398;SDS011;49533;-34.520;150.798;2022-09-09T04:22:12;4.70;;;2.13;;
63398;SDS011;49533;-34.520;150.798;2022-09-09T04:24:39;2.00;;;1.90;;
63398;SDS011;49533;-34.520;150.798;2022-09-09T04:27:06;2.75;;;1.83;;
63398;SDS011;49533;-34.520;150.798;2022-09-09T04:29:33;2.70;;;2.10;;
63398;SDS011;49533;-34.520;150.798;2022-09-09T04:32:00;2.90;;;1.70;;
63398;SDS011;49533;-34.520;150.798;2022-09-09T04:34:27;2.42;;;1.55;;
63398;SDS011;49533;-34.520;150.798;2022-09-09T04:36:55;1.92;;;1.83;;
63398;SDS011;49533;-34.520;150.798;2022-09-09T04:39:23;3.50;;;1.60;;
63398;SDS011;49533;-34.520;150.798;2022-09-09T04:41:50;3.28;;;1.55;;
63398;SDS011;49533;-34.520;150.798;2022-09-09T04:44:17;3.28;;;1.52;;
63398;SDS011;49533;-34.520;150.798;2022-09-09T04:46:44;1.92;;;1.48;;
63398;SDS011;49533;-34.520;150.798;2022-09-09T04:49:11;1.65;;;1.55;;
63398;SDS011;49533;-34.520;150.798;2022-09-09T04:51:38;2.97;;;1.83;;
63398;SDS011;49533;-34.520;150.798;2022-09-09T04:54:05;1.90;;;1.50;;
63398;SDS011;49533;-34.520;150.798;2022-09-09T04:56:32;1.40;;;1.30;;
63398;SDS011;49533;-34.520;150.798;2022-09-09T04:58:59;1.27;;;1.27;;
63398;SDS011;49533;-34.520;150.798;2022-09-09T05:01:28;3.45;;;1.60;;
63398;SDS011;49533;-34.520;150.798;2022-09-09T05:03:55;2.25;;;1.55;;
63398;SDS011;49533;-34.520;150.798;2022-09-09T05:06:23;1.77;;;1.67;;
63398;SDS011;49533;-34.520;150.798;2022-09-09T05:08:50;4.25;;;1.75;;
63398;SDS011;49533;-34.520;150.798;2022-09-09T05:11:18;1.70;;;1.60;;
63398;SDS011;49533;-34.520;150.798;2022-09-09T05:13:48;0.93;;;0.93;;
63398;SDS011;49533;-34.520;150.798;2022-09-09T05:16:16;1.77;;;1.30;;
63398;SDS011;49533;-34.520;150.798;2022-09-09T05:18:44;1.63;;;1.40;;
63398;SDS011;49533;-34.520;150.798;2022-09-09T05:21:12;2.17;;;1.25;;
63398;SDS011;49533;-34.520;150.798;2022-09-09T05:23:40;1.65;;;1.50;;
63398;SDS011;49533;-34.520;150.798;2022-09-09T05:26:08;1.27;;;1.10;;
63398;SDS011;49533;-34.520;150.798;2022-09-09T05:28:38;2.67;;;1.40;;
63398;SDS011;49533;-34.520;150.798;2022-09-09T05:31:06;1.48;;;1.38;;
63398;SDS011;49533;-34.520;150.798;2022-09-09T05:33:36;1.00;;;1.00;;
63398;SDS011;49533;-34.520;150.798;2022-09-09T05:36:07;1.25;;;1.13;;
63398;SDS011;49533;-34.520;150.798;2022-09-09T05:38:39;0.90;;;0.90;;
63398;SDS011;49533;-34.520;150.798;2022-09-09T05:41:07;1.50;;;1.02;;
63398;SDS011;49533;-34.520;150.798;2022-09-09T05:43:36;0.93;;;0.93;;
63398;SDS011;49533;-34.520;150.798;2022-09-09T05:46:06;1.20;;;1.10;;
63398;SDS011;49533;-34.520;150.798;2022-09-09T05:48:36;1.10;;;1.02;;
63398;SDS011;49533;-34.520;150.798;2022-09-09T05:51:06;1.20;;;1.20;;
63398;SDS011;49533;-34.520;150.798;2022-09-09T05:53:38;0.93;;;0.93;;
63398;SDS011;49533;-34.520;150.798;2022-09-09T05:56:06;1.13;;;1.10;;
63398;SDS011;49533;-34.520;150.798;2022-09-09T05:58:38;1.48;;;1.38;;
63398;SDS011;49533;-34.520;150.798;2022-09-09T06:01:07;1.08;;;1.08;;
63398;SDS011;49533;-34.520;150.798;2022-09-09T06:03:36;0.90;;;0.90;;
63398;SDS011;49533;-34.520;150.798;2022-09-09T06:06:06;1.13;;;1.02;;
63398;SDS011;49533;-34.520;150.798;2022-09-09T06:08:35;1.58;;;1.02;;
63398;SDS011;49533;-34.520;150.798;2022-09-09T06:11:06;0.70;;;0.70;;
63398;SDS011;49533;-34.520;150.798;2022-09-09T06:13:34;1.23;;;1.13;;
63398;SDS011;49533;-34.520;150.798;2022-09-09T06:16:06;1.05;;;0.80;;
63398;SDS011;49533;-34.520;150.798;2022-09-09T06:18:37;0.90;;;0.80;;
63398;SDS011;49533;-34.520;150.798;2022-09-09T06:21:05;1.00;;;1.00;;
63398;SDS011;49533;-34.520;150.798;2022-09-09T06:23:34;0.73;;;0.73;;
63398;SDS011;49533;-34.520;150.798;2022-09-09T06:26:04;2.50;;;1.52;;
63398;SDS011;49533;-34.520;150.798;2022-09-09T06:28:34;58.45;;;12.82;;
63398;SDS011;49533;-34.520;150.798;2022-09-09T06:31:03;31.45;;;8.05;;
63398;SDS011;49533;-34.520;150.798;2022-09-09T06:33:33;29.70;;;7.80;;
63398;SDS011;49533;-34.520;150.798;2022-09-09T06:36:02;34.95;;;7.03;;
63398;SDS011;49533;-34.520;150.798;2022-09-09T06:38:30;28.42;;;6.97;;
63398;SDS011;49533;-34.520;150.798;2022-09-09T06:40:58;23.02;;;7.35;;
63398;SDS011;49533;-34.520;150.798;2022-09-09T06:43:27;18.83;;;5.70;;
63398;SDS011;49533;-34.520;150.798;2022-09-09T06:45:56;14.15;;;5.18;;
63398;SDS011;49533;-34.520;150.798;2022-09-09T06:48:25;18.02;;;5.30;;
63398;SDS011;49533;-34.520;150.798;2022-09-09T06:51:03;18.45;;;5.05;;
63398;SDS011;49533;-34.520;150.798;2022-09-09T06:53:33;12.13;;;4.63;;
63398;SDS011;49533;-34.520;150.798;2022-09-09T06:56:02;12.07;;;4.18;;
63398;SDS011;49533;-34.520;150.798;2022-09-09T06:58:44;8.68;;;3.83;;
63398;SDS011;49533;-34.520;150.798;2022-09-09T07:01:13;9.32;;;3.95;;
63398;SDS011;49533;-34.520;150.798;2022-09-09T07:03:42;7.57;;;3.78;;
63398;SDS011;49533;-34.520;150.798;2022-09-09T07:06:15;7.80;;;2.92;;
63398;SDS011;49533;-34.520;150.798;2022-09-09T07:08:48;5.20;;;3.15;;
63398;SDS011;49533;-34.520;150.798;2022-09-09T07:11:18;8.15;;;3.50;;
63398;SDS011;49533;-34.520;150.798;2022-09-09T07:13:46;5.50;;;2.67;;
63398;SDS011;49533;-34.520;150.798;2022-09-09T07:16:15;5.07;;;2.40;;
63398;SDS011;49533;-34.520;150.798;2022-09-09T07:18:43;5.32;;;2.30;;
63398;SDS011;49533;-34.520;150.798;2022-09-09T07:21:11;4.65;;;2.13;;
63398;SDS011;49533;-34.520;150.798;2022-09-09T07:23:40;6.13;;;2.33;;
63398;SDS011;49533;-34.520;150.798;2022-09-09T07:26:09;4.97;;;2.60;;
63398;SDS011;49533;-34.520;150.798;2022-09-09T07:28:39;4.20;;;2.10;;
63398;SDS011;49533;-34.520;150.798;2022-09-09T07:31:12;2.88;;;1.90;;
63398;SDS011;49533;-34.520;150.798;2022-09-09T07:33:42;4.60;;;1.63;;
63398;SDS011;49533;-34.520;150.798;2022-09-09T07:36:13;2.28;;;1.45;;
63398;SDS011;49533;-34.520;150.798;2022-09-09T07:38:43;2.63;;;1.45;;
63398;SDS011;49533;-34.520;150.798;2022-09-09T07:41:14;3.42;;;1.90;;
63398;SDS011;49533;-34.520;150.798;2022-09-09T07:43:44;2.97;;;1.55;;
63398;SDS011;49533;-34.520;150.798;2022-09-09T07:46:13;1.20;;;1.10;;
63398;SDS011;49533;-34.520;150.798;2022-09-09T07:48:44;2.53;;;1.38;;
63398;SDS011;49533;-34.520;150.798;2022-09-09T07:51:13;2.58;;;1.55;;
63398;SDS011;49533;-34.520;150.798;2022-09-09T07:53:44;1.75;;;1.20;;
63398;SDS011;49533;-34.520;150.798;2022-09-09T07:56:15;2.97;;;1.45;;
63398;SDS011;49533;-34.520;150.798;2022-09-09T07:58:45;1.80;;;1.23;;
63398;SDS011;49533;-34.520;150.798;2022-09-09T08:01:15;4.70;;;1.30;;
63398;SDS011;49533;-34.520;150.798;2022-09-09T08:03:45;1.83;;;1.38;;
63398;SDS011;49533;-34.520;150.798;2022-09-09T08:06:13;1.40;;;1.20;;
63398;SDS011;49533;-34.520;150.798;2022-09-09T08:08:40;1.70;;;1.15;;
63398;SDS011;49533;-34.520;150.798;2022-09-09T08:11:11;3.97;;;1.83;;
63398;SDS011;49533;-34.520;150.798;2022-09-09T08:13:40;1.70;;;1.45;;
63398;SDS011;49533;-34.520;150.798;2022-09-09T08:16:14;3.17;;;1.30;;
63398;SDS011;49533;-34.520;150.798;2022-09-09T08:18:43;1.85;;;1.27;;
63398;SDS011;49533;-34.520;150.798;2022-09-09T08:21:12;1.90;;;1.13;;
63398;SDS011;49533;-34.520;150.798;2022-09-09T08:23:43;2.53;;;1.42;;
63398;SDS011;49533;-34.520;150.798;2022-09-09T08:26:14;3.53;;;1.30;;
63398;SDS011;49533;-34.520;150.798;2022-09-09T08:28:43;3.97;;;1.50;;
63398;SDS011;49533;-34.520;150.798;2022-09-09T08:31:12;1.95;;;1.40;;
63398;SDS011;49533;-34.520;150.798;2022-09-09T08:33:42;1.27;;;1.10;;
63398;SDS011;49533;-34.520;150.798;2022-09-09T08:36:12;1.73;;;0.90;;
63398;SDS011;49533;-34.520;150.798;2022-09-09T08:38:41;1.60;;;1.23;;
63398;SDS011;49533;-34.520;150.798;2022-09-09T08:44:20;1.20;;;1.10;;
63398;SDS011;49533;-34.520;150.798;2022-09-09T08:47:07;1.58;;;1.48;;
63398;SDS011;49533;-34.520;150.798;2022-09-09T08:52:54;1.42;;;1.10;;
63398;SDS011;49533;-34.520;150.798;2022-09-09T08:55:36;4.13;;;1.30;;
63398;SDS011;49533;-34.520;150.798;2022-09-09T08:58:13;1.23;;;1.13;;
63398;SDS011;49533;-34.520;150.798;2022-09-09T09:03:36;1.77;;;1.10;;
63398;SDS011;49533;-34.520;150.798;2022-09-09T09:06:22;3.47;;;1.58;;
63398;SDS011;49533;-34.520;150.798;2022-09-09T09:09:16;1.27;;;1.00;;
63398;SDS011;49533;-34.520;150.798;2022-09-09T09:11:53;1.23;;;1.13;;
63398;SDS011;49533;-34.520;150.798;2022-09-09T09:14:27;1.80;;;1.25;;
63398;SDS011;49533;-34.520;150.798;2022-09-09T09:17:01;1.13;;;0.93;;
63398;SDS011;49533;-34.520;150.798;2022-09-09T09:19:32;2.50;;;1.20;;
63398;SDS011;49533;-34.520;150.798;2022-09-09T09:24:56;1.08;;;1.00;;
63398;SDS011;49533;-34.520;150.798;2022-09-09T09:27:46;0.88;;;0.88;;
63398;SDS011;49533;-34.520;150.798;2022-09-09T09:30:32;0.85;;;0.85;;
63398;SDS011;49533;-34.520;150.798;2022-09-09T09:33:08;1.15;;;1.10;;
63398;SDS011;49533;-34.520;150.798;2022-09-09T09:35:44;1.92;;;1.30;;
63398;SDS011;49533;-34.520;150.798;2022-09-09T09:38:16;4.40;;;1.23;;
63398;SDS011;49533;-34.520;150.798;2022-09-09T09:40:49;1.33;;;1.20;;
63398;SDS011;49533;-34.520;150.798;2022-09-09T09:43:23;1.92;;;1.20;;
63398;SDS011;49533;-34.520;150.798;2022-09-09T09:45:54;1.25;;;1.02;;
63398;SDS011;49533;-34.520;150.798;2022-09-09T09:48:23;1.15;;;1.10;;
63398;SDS011;49533;-34.520;150.798;2022-09-09T09:50:53;1.15;;;1.05;;
63398;SDS011;49533;-34.520;150.798;2022-09-09T09:53:29;1.38;;;1.25;;
63398;SDS011;49533;-34.520;150.798;2022-09-09T09:55:59;2.00;;;1.08;;
63398;SDS011;49533;-34.520;150.798;2022-09-09T09:58:30;1.98;;;1.30;;
63398;SDS011;49533;-34.520;150.798;2022-09-09T10:00:59;1.70;;;1.05;;
63398;SDS011;49533;-34.520;150.798;2022-09-09T10:03:28;1.08;;;0.93;;
63398;SDS011;49533;-34.520;150.798;2022-09-09T10:05:58;1.33;;;1.10;;
63398;SDS011;49533;-34.520;150.798;2022-09-09T10:08:26;1.27;;;1.02;;
63398;SDS011;49533;-34.520;150.798;2022-09-09T10:10:59;1.60;;;1.08;;
63398;SDS011;49533;-34.520;150.798;2022-09-09T10:16:47;1.30;;;1.20;;
63398;SDS011;49533;-34.520;150.798;2022-09-09T10:19:29;1.27;;;1.00;;
63398;SDS011;49533;-34.520;150.798;2022-09-09T10:22:02;1.05;;;1.00;;
63398;SDS011;49533;-34.520;150.798;2022-09-09T10:24:46;0.73;;;0.73;;
63398;SDS011;49533;-34.520;150.798;2022-09-09T10:27:30;1.77;;;0.95;;
63398;SDS011;49533;-34.520;150.798;2022-09-09T10:30:23;1.02;;;0.90;;
63398;SDS011;49533;-34.520;150.798;2022-09-09T10:33:04;0.90;;;0.90;;
63398;SDS011;49533;-34.520;150.798;2022-09-09T10:35:50;1.20;;;1.10;;
63398;SDS011;49533;-34.520;150.798;2022-09-09T10:38:45;1.15;;;1.05;;
63398;SDS011;49533;-34.520;150.798;2022-09-09T10:41:15;2.60;;;0.90;;
63398;SDS011;49533;-34.520;150.798;2022-09-09T10:44:06;1.13;;;0.93;;
63398;SDS011;49533;-34.520;150.798;2022-09-09T10:46:52;2.15;;;1.17;;
63398;SDS011;49533;-34.520;150.798;2022-09-09T10:49:51;1.10;;;1.00;;
63398;SDS011;49533;-34.520;150.798;2022-09-09T10:52:41;1.05;;;0.95;;
63398;SDS011;49533;-34.520;150.798;2022-09-09T10:55:25;0.90;;;0.90;;
63398;SDS011;49533;-34.520;150.798;2022-09-09T10:58:02;1.50;;;1.15;;
63398;SDS011;49533;-34.520;150.798;2022-09-09T11:00:39;0.70;;;0.70;;
63398;SDS011;49533;-34.520;150.798;2022-09-09T11:03:17;1.27;;;1.15;;
63398;SDS011;49533;-34.520;150.798;2022-09-09T11:05:55;0.75;;;0.73;;
63398;SDS011;49533;-34.520;150.798;2022-09-09T11:08:30;0.80;;;0.80;;
63398;SDS011;49533;-34.520;150.798;2022-09-09T11:11:11;1.00;;;1.00;;
63398;SDS011;49533;-34.520;150.798;2022-09-09T11:13:59;0.65;;;0.65;;
63398;SDS011;49533;-34.520;150.798;2022-09-09T11:16:41;0.70;;;0.70;;
63398;SDS011;49533;-34.520;150.798;2022-09-09T11:19:38;0.70;;;0.70;;
63398;SDS011;49533;-34.520;150.798;2022-09-09T11:22:14;0.75;;;0.75;;
63398;SDS011;49533;-34.520;150.798;2022-09-09T11:25:05;0.68;;;0.68;;
63398;SDS011;49533;-34.520;150.798;2022-09-09T11:31:04;0.80;;;0.80;;
63398;SDS011;49533;-34.520;150.798;2022-09-09T11:33:55;1.33;;;1.23;;
63398;SDS011;49533;-34.520;150.798;2022-09-09T11:36:43;1.15;;;0.80;;
63398;SDS011;49533;-34.520;150.798;2022-09-09T11:39:27;1.08;;;0.98;;
63398;SDS011;49533;-34.520;150.798;2022-09-09T11:42:18;1.38;;;1.17;;
63398;SDS011;49533;-34.520;150.798;2022-09-09T11:44:46;0.70;;;0.70;;
63398;SDS011;49533;-34.520;150.798;2022-09-09T11:47:23;0.82;;;0.82;;
63398;SDS011;49533;-34.520;150.798;2022-09-09T11:50:38;0.80;;;0.80;;
63398;SDS011;49533;-34.520;150.798;2022-09-09T11:53:04;0.80;;;0.80;;
63398;SDS011;49533;-34.520;150.798;2022-09-09T11:55:37;1.10;;;1.10;;
63398;SDS011;49533;-34.520;150.798;2022-09-09T11:58:05;0.70;;;0.70;;
63398;SDS011;49533;-34.520;150.798;2022-09-09T12:00:43;0.90;;;0.90;;
63398;SDS011;49533;-34.520;150.798;2022-09-09T12:03:33;1.48;;;0.90;;
63398;SDS011;49533;-34.520;150.798;2022-09-09T12:06:13;1.05;;;1.00;;
63398;SDS011;49533;-34.520;150.798;2022-09-09T12:08:48;0.70;;;0.70;;
63398;SDS011;49533;-34.520;150.798;2022-09-09T12:11:24;0.88;;;0.73;;
63398;SDS011;49533;-34.520;150.798;2022-09-09T12:13:55;1.60;;;1.00;;
63398;SDS011;49533;-34.520;150.798;2022-09-09T12:16:29;1.42;;;0.95;;
63398;SDS011;49533;-34.520;150.798;2022-09-09T12:19:04;1.02;;;0.80;;
63398;SDS011;49533;-34.520;150.798;2022-09-09T12:24:31;0.70;;;0.70;;
63398;SDS011;49533;-34.520;150.798;2022-09-09T12:27:10;1.25;;;0.80;;
63398;SDS011;49533;-34.520;150.798;2022-09-09T12:29:57;0.82;;;0.82;;
63398;SDS011;49533;-34.520;150.798;2022-09-09T12:32:35;0.70;;;0.70;;
63398;SDS011;49533;-34.520;150.798;2022-09-09T12:35:09;0.85;;;0.80;;
63398;SDS011;49533;-34.520;150.798;2022-09-09T12:37:46;0.80;;;0.80;;
63398;SDS011;49533;-34.520;150.798;2022-09-09T12:40:23;2.60;;;0.82;;
63398;SDS011;49533;-34.520;150.798;2022-09-09T12:42:52;1.08;;;0.70;;
63398;SDS011;49533;-34.520;150.798;2022-09-09T12:45:21;0.60;;;0.60;;
63398;SDS011;49533;-34.520;150.798;2022-09-09T12:47:55;1.20;;;0.82;;
63398;SDS011;49533;-34.520;150.798;2022-09-09T12:50:30;0.70;;;0.70;;
63398;SDS011;49533;-34.520;150.798;2022-09-09T12:53:07;3.05;;;0.70;;
63398;SDS011;49533;-34.520;150.798;2022-09-09T12:55:48;0.60;;;0.60;;
63398;SDS011;49533;-34.520;150.798;2022-09-09T12:58:17;1.10;;;0.93;;
63398;SDS011;49533;-34.520;150.798;2022-09-09T13:00:50;0.50;;;0.50;;
63398;SDS011;49533;-34.520;150.798;2022-09-09T13:03:19;1.23;;;0.60;;
63398;SDS011;49533;-34.520;150.798;2022-09-09T13:05:47;0.50;;;0.50;;
63398;SDS011;49533;-34.520;150.798;2022-09-09T13:08:15;0.50;;;0.50;;
63398;SDS011;49533;-34.520;150.798;2022-09-09T13:10:48;0.52;;;0.52;;
63398;SDS011;49533;-34.520;150.798;2022-09-09T13:13:21;0.70;;;0.70;;
63398;SDS011;49533;-34.520;150.798;2022-09-09T13:15:53;0.70;;;0.70;;
63398;SDS011;49533;-34.520;150.798;2022-09-09T13:18:25;0.50;;;0.50;;
63398;SDS011;49533;-34.520;150.798;2022-09-09T13:20:55;0.40;;;0.40;;
63398;SDS011;49533;-34.520;150.798;2022-09-09T13:23:26;0.77;;;0.77;;
63398;SDS011;49533;-34.520;150.798;2022-09-09T13:25:56;0.40;;;0.40;;
63398;SDS011;49533;-34.520;150.798;2022-09-09T13:28:27;0.50;;;0.50;;
63398;SDS011;49533;-34.520;150.798;2022-09-09T13:30:56;0.65;;;0.65;;
63398;SDS011;49533;-34.520;150.798;2022-09-09T13:33:29;0.50;;;0.50;;
63398;SDS011;49533;-34.520;150.798;2022-09-09T13:38:31;0.43;;;0.40;;
63398;SDS011;49533;-34.520;150.798;2022-09-09T13:41:04;1.42;;;0.60;;
63398;SDS011;49533;-34.520;150.798;2022-09-09T13:43:35;0.63;;;0.30;;
63398;SDS011;49533;-34.520;150.798;2022-09-09T13:52:05;0.40;;;0.40;;
63398;SDS011;49533;-34.520;150.798;2022-09-09T13:54:36;0.40;;;0.40;;
63398;SDS011;49533;-34.520;150.798;2022-09-09T13:57:04;0.30;;;0.30;;
63398;SDS011;49533;-34.520;150.798;2022-09-09T13:59:31;0.70;;;0.40;;
63398;SDS011;49533;-34.520;150.798;2022-09-09T14:01:58;1.05;;;0.50;;
63398;SDS011;49533;-34.520;150.798;2022-09-09T14:04:27;0.50;;;0.50;;
63398;SDS011;49533;-34.520;150.798;2022-09-09T14:06:54;0.50;;;0.30;;
63398;SDS011;49533;-34.520;150.798;2022-09-09T14:09:21;0.35;;;0.35;;
63398;SDS011;49533;-34.520;150.798;2022-09-09T14:11:48;0.30;;;0.30;;
63398;SDS011;49533;-34.520;150.798;2022-09-09T14:14:15;0.68;;;0.68;;
63398;SDS011;49533;-34.520;150.798;2022-09-09T14:16:42;1.15;;;0.50;;
63398;SDS011;49533;-34.520;150.798;2022-09-09T14:19:10;1.13;;;0.60;;
63398;SDS011;49533;-34.520;150.798;2022-09-09T14:21:37;0.60;;;0.60;;
63398;SDS011;49533;-34.520;150.798;2022-09-09T14:24:04;0.60;;;0.40;;
63398;SDS011;49533;-34.520;150.798;2022-09-09T14:26:31;0.85;;;0.55;;
63398;SDS011;49533;-34.520;150.798;2022-09-09T14:28:58;0.70;;;0.70;;
63398;SDS011;49533;-34.520;150.798;2022-09-09T14:31:26;0.60;;;0.60;;
63398;SDS011;49533;-34.520;150.798;2022-09-09T14:33:53;0.50;;;0.50;;
63398;SDS011;49533;-34.520;150.798;2022-09-09T14:36:20;0.50;;;0.50;;
63398;SDS011;49533;-34.520;150.798;2022-09-09T14:38:48;0.57;;;0.57;;
63398;SDS011;49533;-34.520;150.798;2022-09-09T14:41:16;0.50;;;0.50;;
63398;SDS011;49533;-34.520;150.798;2022-09-09T14:43:45;1.65;;;0.73;;
63398;SDS011;49533;-34.520;150.798;2022-09-09T14:46:15;0.85;;;0.50;;
63398;SDS011;49533;-34.520;150.798;2022-09-09T14:48:43;0.30;;;0.30;;
63398;SDS011;49533;-34.520;150.798;2022-09-09T14:51:12;2.03;;;0.50;;
63398;SDS011;49533;-34.520;150.798;2022-09-09T14:53:41;0.52;;;0.52;;
63398;SDS011;49533;-34.520;150.798;2022-09-09T14:56:12;0.63;;;0.63;;
63398;SDS011;49533;-34.520;150.798;2022-09-09T14:58:42;0.50;;;0.40;;
63398;SDS011;49533;-34.520;150.798;2022-09-09T15:01:10;0.40;;;0.40;;
63398;SDS011;49533;-34.520;150.798;2022-09-09T15:03:39;0.60;;;0.60;;
63398;SDS011;49533;-34.520;150.798;2022-09-09T15:06:11;0.40;;;0.40;;
63398;SDS011;49533;-34.520;150.798;2022-09-09T15:08:40;0.43;;;0.40;;
63398;SDS011;49533;-34.520;150.798;2022-09-09T15:11:10;0.68;;;0.50;;
63398;SDS011;49533;-34.520;150.798;2022-09-09T15:13:39;0.75;;;0.60;;
63398;SDS011;49533;-34.520;150.798;2022-09-09T15:16:10;0.45;;;0.45;;
63398;SDS011;49533;-34.520;150.798;2022-09-09T15:21:10;0.47;;;0.45;;
63398;SDS011;49533;-34.520;150.798;2022-09-09T15:23:39;0.70;;;0.70;;